< < Back
Terminal Aerodrome Forecast


Current Version              Previous Versions:   1  2  3  4  5  6  7  8  9  

Terminal Aerodrome Forecast

685
FTUS42 KGSP 231700
TAFGSP
TAF
KGSP 231722Z 2318/2418 35008KT P6SM SKC
     FM240500 03005KT P6SM SKC
     FM241600 12006KT P6SM FEW250=



Latest METAR

401
SAUS70 KWBC 241400 RRA
MTRGSP
METAR KGSP 241353Z 05009KT 10SM CLR 16/02 A3013 RMK AO2 SLP195
T01560017


USA.gov is the U.S. government's official web portal to all federal, state and local government web resources and services.